Time;durP1;ratioP1;P1;durP2;ratioP2;P2;SDS_P1;SDS_P2;PMS_P1;PMS_P2;Temp;Humidity;BMP_temperature;BMP_pressure;BME280_temperature;BME280_humidity;BME280_pressure;Samples;Min_cycle;Max_cycle;Signal;HPM_P1;HPM_P2
2021/11/21 00:01:01;;;;;;;17.20;12.95;;;;;;;9.38;82.87;100346.75;1707467;83;20929;-75
2021/11/21 00:03:27;;;;;;;;;;;;;;;9.38;82.92;100339.02;1696353;84;20933;-74
2021/11/21 00:05:53;;;;;;;15.58;10.25;;;;;;;9.38;82.86;100331.27;1696981;84;20107;-74
2021/11/21 00:08:19;;;;;;;20.05;13.35;;;;;;;9.38;82.91;100336.00;1697089;83;20937;-74
2021/11/21 00:10:46;;;;;;;18.45;12.37;;;;;;;9.38;82.89;100332.56;1705681;84;20941;-75
2021/11/21 00:13:13;;;;;;;15.08;11.60;;;;;;;9.37;82.86;100323.12;1706791;84;20893;-75
2021/11/21 00:15:42;;;;;;;18.20;12.35;;;;;;;9.37;82.83;100323.12;1694788;83;21505;-75
2021/11/21 00:18:10;;;;;;;15.90;11.63;;;;;;;9.37;82.86;100325.70;1707041;83;20914;-75
2021/11/21 00:20:38;;;;;;;16.77;12.82;;;;;;;9.36;82.83;100320.98;1704629;84;20877;-75
2021/11/21 00:23:05;;;;;;;18.07;12.82;;;;;;;9.37;82.80;100305.05;1679507;85;20853;-75
2021/11/21 00:25:33;;;;;;;20.00;13.68;;;;;;;9.35;82.80;100308.98;1707107;83;20902;-75
2021/11/21 00:28:00;;;;;;;14.87;11.70;;;;;;;9.34;82.80;100313.73;1707241;84;20909;-74
2021/11/21 00:30:27;;;;;;;17.90;11.73;;;;;;;9.33;82.79;100301.70;1710180;82;20850;-75
2021/11/21 00:32:53;;;;;;;;;;;;;;;9.34;82.80;100303.41;1673682;84;20896;-75
2021/11/21 00:35:19;;;;;;;17.17;12.18;;;;;;;9.35;82.71;100301.24;1643656;85;20138;-75
2021/11/21 00:37:45;;;;;;;20.75;11.80;;;;;;;9.33;82.74;100292.67;1682209;85;20923;-75
2021/11/21 00:40:12;;;;;;;17.10;12.20;;;;;;;9.33;82.75;100292.67;1707149;83;20846;-75
2021/11/21 00:42:38;;;;;;;17.45;13.00;;;;;;;9.32;82.73;100290.11;1705635;84;20930;-75
2021/11/21 00:45:08;;;;;;;15.60;11.70;;;;;;;9.30;82.74;100275.95;1707292;83;20862;-75
2021/11/21 00:47:35;;;;;;;15.40;12.28;;;;;;;9.31;82.74;100276.80;1707219;83;20905;-75
2021/11/21 00:50:06;;;;;;;17.10;11.93;;;;;;;9.31;82.72;100276.36;1694328;83;20992;-75
2021/11/21 00:52:34;;;;;;;16.75;11.65;;;;;;;9.29;82.70;100273.80;1687554;85;20868;-74
2021/11/21 00:55:15;;;;;;;16.52;12.63;;;;;;;9.29;82.71;100276.39;1681590;84;21323;-75
2021/11/21 00:57:41;;;;;;;18.55;12.03;;;;;;;9.28;82.69;100273.83;1705879;83;20893;-75
2021/11/21 01:00:14;;;;;;;16.82;12.73;;;;;;;9.27;82.71;100276.00;1691015;83;20890;-75
2021/11/21 01:02:43;;;;;;;20.25;13.30;;;;;;;9.26;82.64;100271.27;1706346;83;20949;-75
2021/11/21 01:05:11;;;;;;;17.92;13.32;;;;;;;9.25;82.67;100272.59;1679197;85;20929;-75
2021/11/21 01:07:38;;;;;;;18.10;12.75;;;;;;;9.24;82.66;100261.86;1695675;84;20956;-75
2021/11/21 01:10:09;;;;;;;19.73;13.00;;;;;;;9.23;82.66;100261.45;1680383;85;20895;-75
2021/11/21 01:12:36;;;;;;;18.35;13.80;;;;;;;9.22;82.65;100263.17;1670777;84;21075;-75
2021/11/21 01:15:05;;;;;;;21.20;13.75;;;;;;;9.23;82.64;100260.16;1704504;83;21045;-75
2021/11/21 01:17:31;;;;;;;21.70;14.28;;;;;;;9.24;82.64;100264.44;1705097;83;21028;-75
2021/11/21 01:19:59;;;;;;;18.95;13.62;;;;;;;9.23;82.63;100255.00;1704197;84;21504;-75
2021/11/21 01:22:28;;;;;;;19.98;13.58;;;;;;;9.23;82.64;100253.70;1702217;84;21029;-75
2021/11/21 01:24:56;;;;;;;20.00;13.22;;;;;;;9.24;82.64;100248.96;1681502;84;21142;-75
2021/11/21 01:27:23;;;;;;;19.30;14.00;;;;;;;9.24;82.61;100243.80;1704168;84;21561;-75
2021/11/21 01:29:50;;;;;;;23.12;14.98;;;;;;;9.23;82.62;100239.08;1692364;83;20981;-75
2021/11/21 01:32:18;;;;;;;21.93;15.98;;;;;;;9.22;82.60;100233.50;1703358;84;21008;-75
2021/11/21 01:34:45;;;;;;;25.00;16.67;;;;;;;9.21;82.58;100233.53;1663558;85;21625;-75
2021/11/21 01:37:12;;;;;;;25.32;16.30;;;;;;;9.19;82.59;100234.84;1695899;84;21036;-75
2021/11/21 01:39:38;;;;;;;25.52;16.73;;;;;;;9.18;82.57;100238.73;1661790;85;21054;-74
2021/11/21 01:42:05;;;;;;;22.40;16.55;;;;;;;9.16;82.60;100235.33;1701698;83;23423;-75
2021/11/21 01:44:31;;;;;;;25.02;16.10;;;;;;;9.16;82.63;100230.17;1697164;83;21492;-75
2021/11/21 01:46:58;;;;;;;23.40;16.07;;;;;;;9.15;82.61;100229.76;1703996;83;21033;-75
2021/11/21 01:49:24;;;;;;;26.15;18.42;;;;;;;9.12;82.79;100221.63;1690361;83;21041;-75
2021/11/21 01:51:51;;;;;;;26.75;17.57;;;;;;;9.12;82.57;100214.33;1698316;84;21032;-74
2021/11/21 01:54:18;;;;;;;25.50;17.37;;;;;;;9.11;82.63;100212.63;1693267;83;21074;-75
2021/11/21 01:56:46;;;;;;;25.75;17.90;;;;;;;9.12;82.63;100212.60;1696070;83;21092;-75
2021/11/21 01:59:13;;;;;;;27.75;16.77;;;;;;;9.11;82.63;100206.18;1706756;83;20942;-75
2021/11/21 02:01:39;;;;;;;26.87;17.82;;;;;;;9.11;82.63;100208.32;1699940;83;21391;-75
2021/11/21 02:04:06;;;;;;;25.25;18.10;;;;;;;9.11;82.63;100204.89;1700280;84;20973;-75
2021/11/21 02:06:32;;;;;;;28.10;18.10;;;;;;;9.11;82.59;100200.59;1706799;83;20917;-75
2021/11/21 02:08:59;;;;;;;26.15;17.80;;;;;;;9.09;82.59;100196.33;1706735;83;20890;-75
2021/11/21 02:11:27;;;;;;;29.23;17.85;;;;;;;9.07;82.59;100200.22;1687084;84;20945;-75
2021/11/21 02:13:54;;;;;;;25.82;17.57;;;;;;;9.06;82.63;100195.94;1706348;84;20949;-75
2021/11/21 02:16:24;;;;;;;27.27;18.45;;;;;;;9.06;82.64;100188.20;1706764;84;20917;-75
2021/11/21 02:18:51;;;;;;;27.55;17.57;;;;;;;9.06;82.63;100186.06;1706806;83;20869;-75
2021/11/21 02:21:20;;;;;;;32.35;19.90;;;;;;;9.04;82.63;100182.22;1694924;83;20902;-75
2021/11/21 02:23:48;;;;;;;27.87;19.05;;;;;;;9.04;82.66;100188.66;1680905;85;20857;-75
2021/11/21 02:26:17;;;;;;;31.57;20.00;;;;;;;9.04;82.69;100190.39;1699646;84;20874;-75
2021/11/21 02:28:46;;;;;;;28.70;20.10;;;;;;;9.03;82.68;100189.98;1706362;83;20949;-75
2021/11/21 02:31:14;;;;;;;29.20;18.77;;;;;;;9.03;82.67;100189.98;1706672;83;20874;-75
2021/11/21 02:33:42;;;;;;;28.05;18.90;;;;;;;9.01;82.69;100184.84;1702042;83;21393;-75
2021/11/21 02:36:09;;;;;;;25.08;18.27;;;;;;;9.02;82.70;100183.13;1699967;84;20922;-75
2021/11/21 02:38:37;;;;;;;30.20;19.15;;;;;;;8.99;82.68;100182.73;1706809;83;20898;-75
2021/11/21 02:41:07;;;;;;;26.52;17.85;;;;;;;8.98;82.68;100178.45;1706350;84;20961;-75
2021/11/21 02:43:34;;;;;;;28.75;17.50;;;;;;;8.98;82.74;100175.87;1679597;85;21190;-75
2021/11/21 02:46:01;;;;;;;28.65;19.45;;;;;;;8.98;82.70;100173.30;1668569;84;21332;-75
2021/11/21 02:48:32;;;;;;;27.35;18.90;;;;;;;8.96;82.67;100172.03;1701746;84;21029;-75
2021/11/21 02:51:01;;;;;;;26.35;18.00;;;;;;;8.95;82.69;100166.45;1678480;84;21099;-74
2021/11/21 02:53:33;;;;;;;25.88;16.48;;;;;;;8.91;82.72;100160.94;1693730;84;21088;-75
2021/11/21 02:56:03;;;;;;;22.73;16.52;;;;;;;8.89;82.74;100163.98;1697048;83;21052;-75
2021/11/21 02:58:32;;;;;;;27.67;17.77;;;;;;;8.89;82.77;100155.39;1693696;83;21064;-75
2021/11/21 03:01:02;;;;;;;29.05;18.77;;;;;;;8.88;82.77;100156.27;1685764;84;20996;-75
2021/11/21 03:03:29;;;;;;;28.50;18.20;;;;;;;8.83;82.78;100146.50;1695989;84;21087;-75
2021/11/21 03:05:58;;;;;;;23.98;16.73;;;;;;;8.82;82.87;100155.97;1701472;84;21492;-75
2021/11/21 03:08:25;;;;;;;25.43;16.93;;;;;;;8.80;82.83;100155.58;1704670;83;20973;-75
2021/11/21 03:10:53;;;;;;;;;;;;;;;8.78;82.87;100154.75;1687560;84;21092;-75
2021/11/21 03:13:19;;;;;;;23.00;15.85;;;;;;;8.76;82.96;100150.91;1688547;84;20328;-75
2021/11/21 03:15:45;;;;;;;23.18;16.60;;;;;;;8.78;82.91;100153.45;1688429;84;21028;-75
2021/11/21 03:18:12;;;;;;;21.45;16.77;;;;;;;8.74;82.85;100151.36;1704733;83;21134;-75
2021/11/21 03:20:39;;;;;;;25.10;17.95;;;;;;;8.73;82.88;100157.84;1704613;83;21416;-75
2021/11/21 03:23:07;;;;;;;27.07;17.32;;;;;;;8.73;82.91;100155.25;1704260;84;21028;-75
2021/11/21 03:25:35;;;;;;;27.85;17.95;;;;;;;8.73;82.93;100155.25;1645403;85;22096;-75
2021/11/21 03:28:07;;;;;;;25.40;17.27;;;;;;;8.71;82.88;100148.84;1659618;85;20994;-75
2021/11/21 03:30:34;;;;;;;26.20;17.65;;;;;;;8.69;82.90;100143.30;1648179;85;21062;-75
2021/11/21 03:33:00;;;;;;;25.62;17.57;;;;;;;8.66;82.92;100136.46;1648336;86;21431;-74
2021/11/21 03:35:27;;;;;;;24.43;17.35;;;;;;;8.65;82.86;100137.77;1659632;85;20892;-74
2021/11/21 03:37:53;;;;;;;25.08;17.90;;;;;;;8.63;82.94;100133.92;1609999;86;21382;-75
2021/11/21 03:40:20;;;;;;;92.22;63.20;;;;;;;8.63;82.91;100135.22;1611251;87;20952;-75
2021/11/21 03:42:46;;;;;;;26.87;18.15;;;;;;;8.61;82.99;100129.23;1660430;86;20971;-75
2021/11/21 03:45:15;;;;;;;50.20;42.93;;;;;;;8.61;83.02;100124.08;1651921;85;20946;-75
2021/11/21 03:47:43;;;;;;;24.82;18.12;;;;;;;8.60;83.01;100123.67;1662480;85;21022;-75
2021/11/21 03:50:12;;;;;;;27.95;19.25;;;;;;;8.57;82.97;100117.27;1636541;86;21041;-75
2021/11/21 03:52:41;;;;;;;27.82;18.85;;;;;;;8.55;83.03;100124.17;1629247;86;21360;-75
2021/11/21 03:55:10;;;;;;;27.62;19.17;;;;;;;8.54;83.03;100120.75;1658900;85;21562;-75
2021/11/21 03:57:36;;;;;;;29.72;19.62;;;;;;;8.53;83.03;100120.33;1667817;85;21303;-75
2021/11/21 04:00:08;;;;;;;25.85;19.00;;;;;;;8.52;83.04;100114.77;1706620;83;20938;-75
2021/11/21 04:02:34;;;;;;;28.20;20.02;;;;;;;8.52;83.06;100119.07;1667645;84;20893;-75
2021/11/21 04:05:03;;;;;;;31.25;19.92;;;;;;;8.50;83.06;100108.78;1705202;83;20906;-75
2021/11/21 04:07:31;;;;;;;32.38;20.12;;;;;;;8.49;83.10;100104.95;1672340;85;21386;-75
2021/11/21 04:09:58;;;;;;;32.50;20.10;;;;;;;8.48;83.11;100105.38;1703258;83;20945;-75
2021/11/21 04:12:24;;;;;;;;;;;;;;;8.48;83.13;100102.80;1690311;84;20905;-75
2021/11/21 04:14:51;;;;;;;30.48;21.48;;;;;;;8.46;83.22;100095.97;1705584;84;20119;-75
2021/11/21 04:17:17;;;;;;;31.57;21.12;;;;;;;8.44;83.21;100096.00;1703971;83;20901;-75
2021/11/21 04:19:44;;;;;;;29.20;19.37;;;;;;;8.44;83.17;100097.28;1704345;83;21496;-74
2021/11/21 04:22:10;;;;;;;32.95;21.33;;;;;;;8.43;83.20;100090.43;1704159;83;20997;-75
2021/11/21 04:24:36;;;;;;;32.38;21.15;;;;;;;8.43;83.21;100089.14;1704646;84;20972;-75
2021/11/21 04:27:03;;;;;;;33.95;20.70;;;;;;;8.43;83.24;100091.72;1688983;83;21093;-75
2021/11/21 04:29:33;;;;;;;31.55;20.92;;;;;;;8.43;83.20;100092.16;1686686;84;21090;-75
2021/11/21 04:32:00;;;;;;;31.07;21.35;;;;;;;8.43;83.17;100093.45;1687635;84;21049;-75
2021/11/21 04:34:28;;;;;;;32.85;21.55;;;;;;;8.42;83.23;100086.16;1703903;84;21040;-75
2021/11/21 04:36:57;;;;;;;35.17;21.05;;;;;;;8.43;83.21;100083.99;1682884;84;21061;-75
2021/11/21 04:39:27;;;;;;;32.08;21.35;;;;;;;8.42;83.18;100076.28;1683124;85;21011;-75
2021/11/21 04:41:54;;;;;;;30.23;20.43;;;;;;;8.41;83.22;100075.88;1679188;84;21032;-75
2021/11/21 04:44:22;;;;;;;42.93;32.85;;;;;;;8.43;83.22;100077.98;1679564;84;21144;-75
2021/11/21 04:46:48;;;;;;;33.70;21.80;;;;;;;8.40;83.19;100072.45;1674970;84;21027;-75
2021/11/21 04:49:15;;;;;;;35.65;21.45;;;;;;;8.40;83.20;100071.16;1702083;84;21041;-75
2021/11/21 04:51:41;;;;;;;36.40;22.60;;;;;;;8.40;83.22;100075.45;1704722;84;21064;-74
2021/11/21 04:54:18;;;;;;;35.35;21.97;;;;;;;8.38;83.27;100065.61;1699053;83;21531;-75
2021/11/21 04:56:42;;;;;;;34.65;21.82;;;;;;;8.37;83.27;100069.92;1681839;85;21099;-75
2021/11/21 04:59:08;;;;;;;34.88;21.12;;;;;;;8.37;83.33;100066.05;1682910;84;21027;-75
2021/11/21 05:01:35;;;;;;;36.58;22.15;;;;;;;8.38;83.32;100068.19;1676382;84;21028;-75
2021/11/21 05:04:01;;;;;;;36.20;21.82;;;;;;;8.39;83.29;100066.03;1704336;83;20933;-75
2021/11/21 05:06:27;;;;;;;34.78;21.00;;;;;;;8.40;83.32;100063.87;1704513;83;21080;-75
2021/11/21 05:08:54;;;;;;;33.88;21.73;;;;;;;8.39;83.32;100057.86;1695051;83;21008;-75
2021/11/21 05:11:20;;;;;;;34.50;21.12;;;;;;;8.38;83.34;100065.17;1704737;83;21054;-75
2021/11/21 05:13:47;;;;;;;33.58;22.65;;;;;;;8.38;83.39;100065.61;1698371;83;21389;-75
2021/11/21 05:16:13;;;;;;;33.23;21.25;;;;;;;8.37;83.35;100064.77;1668843;85;21028;-75
2021/11/21 05:18:40;;;;;;;36.42;22.13;;;;;;;8.35;83.33;100051.06;1669665;84;21031;-75
2021/11/21 05:21:06;;;;;;;38.25;22.67;;;;;;;8.35;83.39;100061.36;1671087;84;21126;-75
2021/11/21 05:23:32;;;;;;;32.70;20.80;;;;;;;8.32;83.41;100052.83;1676207;85;21021;-75
2021/11/21 05:25:59;;;;;;;33.10;22.05;;;;;;;8.30;83.40;100053.70;1686895;83;21024;-75
2021/11/21 05:28:25;;;;;;;36.10;22.27;;;;;;;8.29;83.39;100053.73;1692312;83;21064;-75
2021/11/21 05:30:51;;;;;;;39.98;23.42;;;;;;;8.27;83.45;100057.61;1693468;83;21044;-74
2021/11/21 05:33:18;;;;;;;40.98;22.58;;;;;;;8.27;83.47;100055.48;1690417;84;20981;-75
2021/11/21 05:35:45;;;;;;;36.28;22.77;;;;;;;8.25;83.48;100054.21;1692879;83;21041;-74
2021/11/21 05:38:11;;;;;;;34.27;22.02;;;;;;;8.24;83.51;100052.52;1683104;85;21075;-74
2021/11/21 05:40:37;;;;;;;37.50;22.10;;;;;;;8.24;83.50;100055.09;1683026;84;20943;-74
2021/11/21 05:43:04;;;;;;;39.45;22.02;;;;;;;8.24;83.49;100048.65;1682520;84;20956;-74
2021/11/21 05:45:30;;;;;;;36.42;21.82;;;;;;;8.24;83.50;100047.80;1693779;83;21104;-74
2021/11/21 05:47:58;;;;;;;36.55;21.85;;;;;;;8.24;83.47;100043.94;1694310;83;20981;-74
2021/11/21 05:50:24;;;;;;;34.90;22.00;;;;;;;8.24;83.47;100042.21;1703976;84;21020;-74
2021/11/21 05:52:53;;;;;;;39.55;23.95;;;;;;;8.22;83.47;100041.38;1682138;83;21067;-74
2021/11/21 05:55:19;;;;;;;34.95;22.22;;;;;;;8.20;83.52;100036.69;1693342;84;20973;-74
2021/11/21 05:57:46;;;;;;;40.20;23.55;;;;;;;8.20;83.53;100032.83;1704004;83;21119;-74
2021/11/21 06:00:23;;;;;;;32.58;22.02;;;;;;;8.18;83.51;100026.85;1680089;85;20924;-74
2021/11/21 06:02:51;;;;;;;38.40;22.73;;;;;;;8.17;83.52;100024.30;1685065;84;21409;-74
2021/11/21 06:05:18;;;;;;;37.20;22.70;;;;;;;8.16;83.56;100022.60;1704057;83;20929;-74
2021/11/21 06:07:45;;;;;;;36.38;23.35;;;;;;;8.15;83.57;100024.32;1703234;84;21257;-74
2021/11/21 06:10:12;;;;;;;38.45;23.95;;;;;;;8.17;83.65;100020.44;1704911;84;21052;-74
2021/11/21 06:12:41;;;;;;;38.88;23.98;;;;;;;8.17;83.59;100020.44;1703442;84;21056;-74
2021/11/21 06:15:09;;;;;;;37.95;23.30;;;;;;;8.17;83.60;100015.28;1673670;85;21059;-74
2021/11/21 06:17:35;;;;;;;43.48;24.60;;;;;;;8.16;83.60;100021.31;1679784;84;21093;-75
2021/11/21 06:20:04;;;;;;;45.10;25.52;;;;;;;8.15;83.60;100014.46;1701870;84;21104;-74
2021/11/21 06:22:32;;;;;;;39.53;25.77;;;;;;;8.15;83.58;100019.61;1694816;84;20971;-74
2021/11/21 06:24:59;;;;;;;40.20;24.55;;;;;;;8.14;83.61;100021.77;1695768;83;21081;-74
2021/11/21 06:27:26;;;;;;;39.27;24.85;;;;;;;8.12;83.61;100014.51;1693185;84;21030;-74
2021/11/21 06:29:53;;;;;;;38.10;23.30;;;;;;;8.13;83.60;100022.64;1699386;82;28756;-74
2021/11/21 06:32:19;;;;;;;44.13;26.82;;;;;;;8.12;83.65;100023.08;1704181;83;26637;-74
2021/11/21 06:34:48;;;;;;;42.60;25.50;;;;;;;8.11;83.60;100020.53;1703946;84;20905;-74
2021/11/21 06:37:14;;;;;;;39.40;24.05;;;;;;;8.11;83.60;100020.09;1704511;83;21033;-74
2021/11/21 06:39:42;;;;;;;42.75;25.25;;;;;;;8.12;83.61;100027.38;1704417;83;21088;-74
2021/11/21 06:42:14;;;;;;;40.48;24.40;;;;;;;8.13;83.62;100018.78;1679799;84;20914;-75
2021/11/21 06:44:43;;;;;;;45.43;24.40;;;;;;;8.12;83.64;100017.08;1674447;84;21489;-75
2021/11/21 06:47:10;;;;;;;39.25;23.62;;;;;;;8.12;83.61;100026.09;1684869;84;20888;-75
2021/11/21 06:49:37;;;;;;;42.03;25.57;;;;;;;8.13;83.65;100023.50;1684862;84;20908;-74
2021/11/21 06:52:04;;;;;;;39.38;24.23;;;;;;;8.14;83.63;100020.05;1703428;83;20913;-74
2021/11/21 06:54:31;;;;;;;39.92;23.73;;;;;;;8.15;83.61;100021.75;1703167;84;20937;-74
2021/11/21 06:56:57;;;;;;;40.33;24.98;;;;;;;8.15;83.59;100017.89;1704108;83;21547;-74
2021/11/21 06:59:23;;;;;;;40.75;24.57;;;;;;;8.15;83.64;100019.61;1697853;83;21508;-75
2021/11/21 07:01:50;;;;;;;39.38;25.05;;;;;;;8.17;83.62;100020.44;1702258;83;21000;-75
2021/11/21 07:04:19;;;;;;;41.50;25.57;;;;;;;8.15;83.60;100016.59;1692717;84;21033;-74
2021/11/21 07:06:46;;;;;;;40.00;25.45;;;;;;;8.14;83.60;100015.34;1704351;83;21049;-74
2021/11/21 07:09:16;;;;;;;41.15;26.07;;;;;;;8.15;83.61;100023.47;1695639;84;21036;-75
2021/11/21 07:11:46;;;;;;;37.40;24.02;;;;;;;8.15;83.59;100016.59;1698702;84;20957;-75
2021/11/21 07:14:12;;;;;;;39.50;24.80;;;;;;;8.16;83.61;100014.88;1706547;84;20901;-75
2021/11/21 07:16:49;;;;;;;36.98;24.40;;;;;;;8.17;83.62;100015.28;1700670;83;21397;-75
2021/11/21 07:19:15;;;;;;;41.13;24.87;;;;;;;8.16;83.61;100017.45;1699637;83;21561;-74
2021/11/21 07:21:48;;;;;;;39.88;24.57;;;;;;;8.17;83.62;100015.28;1706232;84;21863;-74
2021/11/21 07:24:14;;;;;;;43.83;25.15;;;;;;;8.18;83.65;100018.27;1698910;83;21988;-74
2021/11/21 07:26:41;;;;;;;41.28;25.77;;;;;;;8.16;83.65;100019.59;1702378;82;20976;-74
2021/11/21 07:29:08;;;;;;;;;;;;;;;8.17;83.70;100021.73;1684698;83;21534;-75
2021/11/21 07:31:35;;;;;;;42.23;24.98;;;;;;;8.18;83.77;100018.27;1703086;82;20186;-74
2021/11/21 07:34:03;;;;;;;40.63;25.77;;;;;;;8.18;83.69;100020.85;1700917;82;21461;-75
2021/11/21 07:36:30;;;;;;;45.48;27.30;;;;;;;8.16;83.65;100020.88;1698273;82;22177;-75
2021/11/21 07:38:56;;;;;;;44.50;26.93;;;;;;;8.17;83.67;100028.16;1706825;82;21951;-75
2021/11/21 07:41:22;;;;;;;44.58;26.37;;;;;;;8.17;83.76;100022.58;1701442;82;21112;-75
2021/11/21 07:43:49;;;;;;;41.68;24.82;;;;;;;8.19;83.70;100022.55;1703483;82;21084;-75
2021/11/21 07:46:15;;;;;;;;;;;;;;;8.19;83.67;100022.55;1674473;83;20983;-75
2021/11/21 07:48:42;;;;;;;43.13;25.37;;;;;;;8.18;83.70;100010.11;1651761;86;20502;-75
2021/11/21 07:51:09;;;;;;;39.45;24.90;;;;;;;8.19;83.70;100019.54;1678287;83;21361;-74
2021/11/21 07:53:36;;;;;;;44.88;26.82;;;;;;;8.19;83.71;100021.27;1706099;82;28903;-74
2021/11/21 07:56:03;;;;;;;41.35;25.95;;;;;;;8.20;83.73;100021.23;1701238;82;21604;-74
2021/11/21 07:58:30;;;;;;;;;;;;;;;8.23;83.71;100015.19;1706617;82;21493;-74
2021/11/21 08:00:56;;;;;;;36.98;23.35;;;;;;;8.24;83.73;100020.31;1701647;82;20206;-74
2021/11/21 08:03:23;;;;;;;38.30;23.20;;;;;;;8.26;83.69;100021.14;1702130;82;21559;-74
2021/11/21 08:05:49;;;;;;;37.25;23.50;;;;;;;8.27;83.71;100015.12;1704081;82;21060;-74
2021/11/21 08:08:15;;;;;;;38.70;23.57;;;;;;;8.29;83.67;100010.80;1701191;82;21056;-74
2021/11/21 08:10:42;;;;;;;43.05;26.12;;;;;;;8.33;83.65;100009.45;1682775;83;21079;-74
2021/11/21 08:13:14;;;;;;;39.23;23.75;;;;;;;8.33;83.66;100006.44;1701373;82;21548;-74
2021/11/21 08:15:41;;;;;;;40.80;23.62;;;;;;;8.36;83.68;100006.83;1701328;82;21714;-74
2021/11/21 08:18:10;;;;;;;37.75;23.83;;;;;;;8.39;83.70;100015.36;1698348;82;21624;-74
2021/11/21 08:20:36;;;;;;;43.65;26.10;;;;;;;8.43;83.67;100022.16;1704702;82;21623;-74
2021/11/21 08:23:02;;;;;;;36.73;24.75;;;;;;;8.46;83.68;100014.38;1681417;83;21062;-75
2021/11/21 08:25:29;;;;;;;37.13;23.52;;;;;;;8.50;83.62;100019.89;1679259;83;21087;-75
2021/11/21 08:27:55;;;;;;;41.73;24.55;;;;;;;8.52;83.62;100023.73;1704494;82;21052;-72
2021/11/21 08:30:22;;;;;;;34.75;22.67;;;;;;;8.55;83.61;100021.10;1704475;83;21048;-72
2021/11/21 08:32:48;;;;;;;36.05;23.60;;;;;;;8.60;83.64;100012.86;1704047;84;21104;-71
2021/11/21 08:35:15;;;;;;;35.58;23.30;;;;;;;8.62;83.59;100011.95;1681312;84;21516;-71
2021/11/21 08:37:42;;;;;;;38.38;22.82;;;;;;;8.67;83.63;100017.02;1703497;84;21496;-75
2021/11/21 08:40:09;;;;;;;35.65;21.95;;;;;;;8.72;83.60;100013.08;1703200;83;21091;-71
2021/11/21 08:42:37;;;;;;;36.77;22.75;;;;;;;8.73;83.57;100013.48;1703688;82;21631;-71
2021/11/21 08:45:07;;;;;;;38.63;22.98;;;;;;;8.76;83.57;100021.17;1701152;84;21652;-71
2021/11/21 08:47:35;;;;;;;34.18;22.60;;;;;;;8.76;83.55;100022.45;1682634;84;21542;-71
2021/11/21 08:50:06;;;;;;;35.45;21.05;;;;;;;8.76;83.59;100027.17;1679627;85;21499;-71
2021/11/21 08:52:33;;;;;;;35.55;24.27;;;;;;;8.77;83.62;100027.58;1697578;83;21117;-71
2021/11/21 08:54:59;;;;;;;29.87;20.48;;;;;;;8.79;83.62;100033.56;1704922;82;20973;-71
2021/11/21 08:57:28;;;;;;;32.03;21.33;;;;;;;8.81;83.59;100028.38;1704647;82;21076;-71
2021/11/21 08:59:54;;;;;;;31.80;20.88;;;;;;;8.80;83.58;100030.55;1692717;83;614373;-71
2021/11/21 09:02:20;;;;;;;31.27;20.65;;;;;;;8.79;83.58;100029.70;1707391;83;21452;-71
2021/11/21 09:04:47;;;;;;;34.75;22.62;;;;;;;8.79;83.56;100039.16;1706843;83;20941;-71
2021/11/21 09:07:13;;;;;;;34.18;22.17;;;;;;;8.78;83.57;100039.59;1689919;83;21481;-71
2021/11/21 09:09:39;;;;;;;34.00;21.30;;;;;;;8.79;83.59;100041.73;1704740;84;21490;-71
2021/11/21 09:12:08;;;;;;;30.62;20.45;;;;;;;8.77;83.60;100035.31;1706594;83;20925;-71
2021/11/21 09:14:34;;;;;;;31.60;20.70;;;;;;;8.79;83.61;100030.14;1703150;84;21024;-71
2021/11/21 09:17:01;;;;;;;32.25;18.62;;;;;;;8.82;83.64;100037.81;1692400;84;21008;-71
2021/11/21 09:19:30;;;;;;;27.42;18.92;;;;;;;8.81;83.59;100025.80;1704190;82;21556;-71
2021/11/21 09:21:56;;;;;;;29.52;17.82;;;;;;;8.83;83.60;100035.64;1702875;82;21024;-71
2021/11/21 09:24:23;;;;;;;31.75;18.85;;;;;;;8.86;83.58;100032.98;1700530;84;21497;-71
2021/11/21 09:26:49;;;;;;;30.12;19.67;;;;;;;8.87;83.57;100020.50;1703099;83;21076;-71
2021/11/21 09:29:17;;;;;;;26.45;17.35;;;;;;;8.88;83.58;100030.78;1703992;83;21017;-71
2021/11/21 09:31:43;;;;;;;181.47;35.80;;;;;;;8.89;83.59;100018.75;1704096;83;21526;-71
2021/11/21 09:34:09;;;;;;;104.80;22.77;;;;;;;8.89;83.57;100023.46;1703280;82;20973;-71
2021/11/21 09:36:37;;;;;;;26.17;17.52;;;;;;;8.89;83.54;100029.91;1695508;84;21040;-71
2021/11/21 09:39:04;;;;;;;32.60;19.15;;;;;;;8.91;83.56;100032.45;1701669;84;21069;-71
2021/11/21 09:41:31;;;;;;;26.10;17.80;;;;;;;8.90;83.54;100032.90;1697028;83;21046;-71
2021/11/21 09:43:57;;;;;;;26.50;17.57;;;;;;;8.91;83.57;100023.44;1700150;83;21110;-71
2021/11/21 09:46:24;;;;;;;26.20;17.40;;;;;;;8.94;83.58;100026.80;1703618;84;21041;-71
2021/11/21 09:48:50;;;;;;;25.60;17.02;;;;;;;8.96;83.58;100021.18;1704443;84;21056;-71
2021/11/21 09:51:18;;;;;;;26.65;18.25;;;;;;;9.01;83.62;100018.95;1698112;83;21080;-71
2021/11/21 09:53:45;;;;;;;30.68;18.55;;;;;;;9.05;83.62;100015.44;1678365;85;21083;-71
2021/11/21 09:56:11;;;;;;;23.60;16.42;;;;;;;9.08;83.59;100009.78;1674202;84;21049;-72
2021/11/21 09:58:45;;;;;;;26.48;16.97;;;;;;;9.11;83.59;100010.16;1699215;83;21044;-72
2021/11/21 10:01:40;;;;;;;27.52;17.95;;;;;;;9.14;83.59;100007.53;1702461;82;21109;-72
2021/11/21 10:04:08;;;;;;;24.65;16.90;;;;;;;9.13;83.54;100007.11;1674517;83;21028;-71
2021/11/21 10:06:45;;;;;;;23.85;17.30;;;;;;;9.14;83.52;100011.39;1706651;83;20948;-71
2021/11/21 10:09:18;;;;;;;27.37;17.60;;;;;;;9.14;83.50;100016.55;1702423;83;20929;-72
2021/11/21 10:12:05;;;;;;;28.70;18.05;;;;;;;9.14;83.53;100013.53;1706838;83;20893;-72
2021/11/21 10:14:33;;;;;;;27.52;17.77;;;;;;;9.16;83.54;100014.79;1703972;84;21021;-71
2021/11/21 10:17:00;;;;;;;30.20;18.80;;;;;;;9.18;83.58;100022.06;1702498;82;20914;-72
2021/11/21 10:19:26;;;;;;;31.85;20.25;;;;;;;9.18;83.52;100011.74;1704532;82;20902;-71
2021/11/21 10:21:56;;;;;;;34.00;21.27;;;;;;;9.19;83.53;100014.73;1704682;83;21364;-72
2021/11/21 10:24:30;;;;;;;28.90;19.60;;;;;;;9.20;83.57;100010.83;1704771;83;20858;-71
2021/11/21 10:27:19;;;;;;;26.17;16.73;;;;;;;9.18;83.49;100017.75;1701660;84;21092;-71
2021/11/21 10:29:49;;;;;;;25.57;16.82;;;;;;;9.17;83.51;100013.47;1700270;82;21068;-72
2021/11/21 10:32:33;;;;;;;28.50;17.80;;;;;;;9.17;83.59;100019.08;1706128;82;20945;-71
2021/11/21 10:35:06;;;;;;;25.65;16.95;;;;;;;9.17;83.57;100016.05;1706771;83;20942;-71
2021/11/21 10:37:37;;;;;;;23.10;16.07;;;;;;;9.14;83.52;100017.41;1694045;82;21075;-71
2021/11/21 10:40:17;;;;;;;27.50;17.25;;;;;;;9.12;83.49;100019.16;1687640;83;20904;-75
2021/11/21 10:42:47;;;;;;;22.10;15.40;;;;;;;9.10;83.50;100015.77;1701792;82;21091;-75
2021/11/21 10:45:20;;;;;;;23.62;15.78;;;;;;;9.09;83.53;100018.38;1703664;82;21057;-76
2021/11/21 10:47:55;;;;;;;21.75;14.68;;;;;;;9.07;83.54;100014.53;1679233;83;21333;-75
2021/11/21 10:50:29;;;;;;;23.18;15.03;;;;;;;9.05;83.50;100016.29;1682603;85;21027;-78
2021/11/21 10:53:06;;;;;;;19.80;14.43;;;;;;;9.05;83.56;100015.44;1696536;83;20981;-77
2021/11/21 10:55:32;;;;;;;24.75;15.93;;;;;;;9.05;83.55;100018.02;1703968;84;21037;-77
2021/11/21 10:58:17;;;;;;;28.05;16.00;;;;;;;9.04;83.54;100010.72;1704803;83;21040;-79
2021/11/21 11:00:47;;;;;;;24.43;16.67;;;;;;;9.03;83.52;100016.76;1705858;83;20878;-75
2021/11/21 11:03:20;;;;;;;22.55;15.32;;;;;;;9.01;83.52;100018.95;1700774;84;20918;-77
2021/11/21 11:05:47;;;;;;;22.93;15.83;;;;;;;9.00;83.50;100023.27;1686075;85;20853;-74
2021/11/21 11:08:26;;;;;;;22.10;15.20;;;;;;;8.98;83.51;100013.86;1685149;84;20961;-76
2021/11/21 11:10:53;;;;;;;26.17;16.40;;;;;;;9.00;83.54;100013.39;1684226;85;21015;-75
2021/11/21 11:13:19;;;;;;;27.80;15.65;;;;;;;9.01;83.54;100002.20;1704035;84;21040;-75
2021/11/21 11:15:46;;;;;;;24.67;16.40;;;;;;;9.01;83.57;100008.64;1699619;84;21068;-77
2021/11/21 11:18:16;;;;;;;22.95;15.98;;;;;;;9.03;83.52;100005.59;1705074;83;21718;-77
2021/11/21 11:20:49;;;;;;;102.32;37.58;;;;;;;9.02;83.50;100006.03;1702688;84;20988;-75
2021/11/21 11:23:20;;;;;;;30.15;22.77;;;;;;;9.03;83.55;100005.59;1685152;83;21008;-75